createdAt,value
2023-05-22T00:02:57.209Z,100036.53
2023-05-22T00:06:00.139Z,100036.78
2023-05-22T00:09:01.751Z,100032.00
2023-05-22T00:12:03.430Z,100036.84
2023-05-22T00:15:05.962Z,100028.00
2023-05-22T00:18:08.254Z,100028.38
2023-05-22T00:21:10.679Z,100010.34
2023-05-22T00:24:12.299Z,100024.25
2023-05-22T00:27:13.721Z,100017.34
2023-05-22T00:30:15.242Z,100016.69
2023-05-22T00:33:16.705Z,100020.31
2023-05-22T00:36:18.756Z,100024.81
2023-05-22T00:39:20.259Z,100022.03
2023-05-22T00:42:23.020Z,100030.78
2023-05-22T00:45:24.675Z,100030.78
2023-05-22T00:48:26.782Z,100030.69
2023-05-22T00:51:29.557Z,100032.31
2023-05-22T00:54:32.423Z,100032.00
2023-05-22T00:57:33.896Z,100028.22
2023-05-22T01:00:36.890Z,100033.16
2023-05-22T01:03:44.544Z,100033.91
2023-05-22T01:06:47.572Z,100029.31
2023-05-22T01:09:49.096Z,100025.84
2023-05-22T01:13:01.174Z,100026.00
2023-05-22T01:16:14.766Z,100026.00
2023-05-22T01:19:54.036Z,100031.25
2023-05-22T01:23:13.478Z,100022.97
2023-05-22T01:26:28.960Z,100023.16
2023-05-22T01:29:42.335Z,100020.41
2023-05-22T01:32:47.641Z,100016.78
2023-05-22T01:35:54.024Z,100023.22
2023-05-22T01:38:56.408Z,100026.06
2023-05-22T01:41:58.310Z,100028.66
2023-05-22T01:44:59.771Z,100025.25
2023-05-22T01:48:01.242Z,100031.22
2023-05-22T01:51:09.187Z,100039.53
2023-05-22T01:54:36.945Z,100037.06
2023-05-22T01:58:00.197Z,100042.72
2023-05-22T02:01:03.513Z,100047.13
2023-05-22T02:04:06.479Z,100044.09
2023-05-22T02:07:12.423Z,100048.81
2023-05-22T02:10:16.514Z,100051.66
2023-05-22T02:13:18.512Z,100043.03
2023-05-22T02:16:22.074Z,100052.00
2023-05-22T02:19:24.580Z,100054.66
2023-05-22T02:22:26.655Z,100054.66
2023-05-22T02:25:28.169Z,100048.56
2023-05-22T02:28:29.891Z,100051.88
2023-05-22T02:31:31.377Z,100043.41
2023-05-22T02:34:32.986Z,100047.50
2023-05-22T02:37:34.501Z,100049.81
2023-05-22T02:40:35.995Z,100048.53
2023-05-22T02:43:37.481Z,100052.56
2023-05-22T02:46:38.977Z,100048.69
2023-05-22T02:49:40.692Z,100056.56
2023-05-22T02:52:42.477Z,100054.88
2023-05-22T02:55:44.000Z,100055.28
2023-05-22T02:58:45.553Z,100054.81
2023-05-22T03:01:48.389Z,100059.28
2023-05-22T03:04:50.075Z,100056.72
2023-05-22T03:07:52.754Z,100058.66
2023-05-22T03:10:54.501Z,100058.75
2023-05-22T03:13:56.437Z,100059.88
2023-05-22T03:16:58.881Z,100065.03
2023-05-22T03:20:00.422Z,100062.53
2023-05-22T03:23:01.917Z,100068.63
2023-05-22T03:26:03.387Z,100071.50
2023-05-22T03:29:09.339Z,100070.97
2023-05-22T03:32:14.444Z,100069.97
2023-05-22T03:35:19.602Z,100078.66
2023-05-22T03:38:21.153Z,100078.53
2023-05-22T03:41:22.584Z,100076.44
2023-05-22T03:44:24.426Z,100080.16
2023-05-22T03:47:25.978Z,100084.03
2023-05-22T03:50:27.526Z,100082.09
2023-05-22T03:53:29.298Z,100081.25
2023-05-22T03:56:30.761Z,100076.47
2023-05-22T03:59:32.248Z,100082.47
2023-05-22T04:02:33.766Z,100079.69
2023-05-22T04:05:35.417Z,100078.72
2023-05-22T04:08:37.006Z,100073.13
2023-05-22T04:11:42.326Z,100080.91
2023-05-22T04:14:43.846Z,100080.03
2023-05-22T04:17:46.110Z,100082.78
2023-05-22T04:20:47.770Z,100080.25
2023-05-22T04:23:49.424Z,100085.75
2023-05-22T04:26:50.868Z,100088.53
2023-05-22T04:29:52.728Z,100094.63
2023-05-22T04:32:54.219Z,100088.97
2023-05-22T04:35:56.986Z,100093.03
2023-05-22T04:39:00.291Z,100086.75
2023-05-22T04:42:05.775Z,100090.69
2023-05-22T04:45:09.076Z,100098.59
2023-05-22T04:48:11.915Z,100092.09
2023-05-22T04:51:14.375Z,100089.25
2023-05-22T04:54:15.921Z,100097.78
2023-05-22T04:57:21.249Z,100099.28
2023-05-22T05:00:26.370Z,100093.31
2023-05-22T05:03:28.564Z,100095.84
2023-05-22T05:06:30.128Z,100102.69
2023-05-22T05:09:31.776Z,100098.91
2023-05-22T05:12:33.613Z,100089.00
2023-05-22T05:15:35.373Z,100100.06
2023-05-22T05:18:37.569Z,100095.50
2023-05-22T05:21:39.562Z,100097.66
2023-05-22T05:24:41.141Z,100095.31
2023-05-22T05:27:42.669Z,100100.44
2023-05-22T05:30:44.606Z,100100.03
2023-05-22T05:34:05.727Z,100098.97
2023-05-22T05:37:24.872Z,100100.03
2023-05-22T05:40:27.552Z,100103.00
2023-05-22T05:43:29.156Z,100104.06
2023-05-22T05:46:36.395Z,100103.53
2023-05-22T05:49:38.074Z,100107.16
2023-05-22T05:52:41.318Z,100106.88
2023-05-22T05:55:47.465Z,100112.94
2023-05-22T05:58:49.327Z,100113.78
2023-05-22T06:02:13.663Z,100111.03
2023-05-22T06:05:19.004Z,100118.69
2023-05-22T06:08:22.284Z,100121.13
2023-05-22T06:11:24.074Z,100123.50
2023-05-22T06:14:28.847Z,100128.06
2023-05-22T06:17:30.342Z,100131.16
2023-05-22T06:20:32.574Z,100123.66
2023-05-22T06:23:34.165Z,100126.19
2023-05-22T06:26:35.937Z,100135.34
2023-05-22T06:29:37.569Z,100135.75
2023-05-22T06:32:40.156Z,100132.09
2023-05-22T06:35:43.071Z,100131.81
2023-05-22T06:38:45.989Z,100130.41
2023-05-22T06:42:07.814Z,100125.81
2023-05-22T06:45:27.687Z,100123.31
2023-05-22T06:48:49.361Z,100120.31
2023-05-22T06:51:57.082Z,100121.06
2023-05-22T06:55:04.435Z,100124.47
2023-05-22T06:58:08.172Z,100122.81
2023-05-22T07:01:10.977Z,100124.75
2023-05-22T07:04:20.948Z,100129.78
2023-05-22T07:07:31.155Z,100117.63
2023-05-22T07:10:32.801Z,100122.38
2023-05-22T07:13:34.612Z,100129.22
2023-05-22T07:16:36.855Z,100130.44
2023-05-22T07:19:38.768Z,100129.94
2023-05-22T07:22:40.306Z,100139.91
2023-05-22T07:25:42.984Z,100132.13
2023-05-22T07:28:46.699Z,100142.47
2023-05-22T07:31:49.419Z,100141.38
2023-05-22T07:34:51.237Z,100137.97
2023-05-22T07:37:53.151Z,100135.03
2023-05-22T07:40:56.202Z,100132.59
2023-05-22T07:43:59.034Z,100133.53
2023-05-22T07:47:05.907Z,100138.19
2023-05-22T07:50:09.264Z,100136.91
2023-05-22T07:53:14.142Z,100142.44
2023-05-22T07:56:18.166Z,100148.47
2023-05-22T07:59:21.990Z,100150.47
2023-05-22T08:02:24.774Z,100153.34
2023-05-22T08:05:26.464Z,100145.66
2023-05-22T08:08:28.897Z,100151.28
2023-05-22T08:11:31.967Z,100152.84
2023-05-22T08:14:33.537Z,100151.69
2023-05-22T08:17:35.199Z,100145.47
2023-05-22T08:20:38.208Z,100154.81
2023-05-22T08:23:39.829Z,100155.72
2023-05-22T08:26:43.060Z,100149.38
2023-05-22T08:29:44.508Z,100146.59
2023-05-22T08:32:45.966Z,100146.06
2023-05-22T08:35:47.472Z,100152.22
2023-05-22T08:38:48.918Z,100145.38
2023-05-22T08:41:50.977Z,100136.94
2023-05-22T08:44:52.904Z,100135.94
2023-05-22T08:47:57.320Z,100137.03
2023-05-22T08:51:04.719Z,100123.97
2023-05-22T08:54:09.819Z,100130.69
2023-05-22T08:57:11.653Z,100121.59
2023-05-22T09:00:13.780Z,100117.81
2023-05-22T09:03:15.761Z,100115.25
2023-05-22T09:06:17.635Z,100113.00
2023-05-22T09:09:19.541Z,100123.22
2023-05-22T09:12:21.186Z,100104.91
2023-05-22T09:15:22.633Z,100125.44
2023-05-22T09:18:27.263Z,100128.28
2023-05-22T09:21:30.641Z,100123.47
2023-05-22T09:24:40.306Z,100124.56
2023-05-22T09:27:45.698Z,100122.00
2023-05-22T09:30:51.543Z,100123.41
2023-05-22T09:33:53.971Z,100125.28
2023-05-22T09:37:03.244Z,100122.06
2023-05-22T09:40:11.027Z,100125.16
2023-05-22T09:43:17.212Z,100127.25
2023-05-22T09:46:18.775Z,100114.13
2023-05-22T09:49:20.294Z,100112.16
2023-05-22T09:52:23.524Z,100115.13
2023-05-22T09:55:26.328Z,100106.66
2023-05-22T09:58:31.074Z,100101.59
2023-05-22T10:01:33.973Z,100106.56
2023-05-22T10:04:36.738Z,100102.38
2023-05-22T10:07:50.130Z,100100.19
2023-05-22T10:10:53.106Z,100098.06
2023-05-22T10:13:55.174Z,100101.78
2023-05-22T10:17:01.986Z,100094.59
2023-05-22T10:20:07.803Z,100096.72
2023-05-22T10:23:14.920Z,100101.16
2023-05-22T10:26:16.966Z,100086.75
2023-05-22T10:29:42.028Z,100096.88
2023-05-22T10:32:57.791Z,100087.66
2023-05-22T10:36:04.700Z,100085.31
2023-05-22T10:39:26.225Z,100084.38
2023-05-22T10:42:34.312Z,100080.78
2023-05-22T10:45:36.560Z,100076.59
2023-05-22T10:48:47.767Z,100069.72
2023-05-22T10:51:55.201Z,100076.50
2023-05-22T10:55:00.124Z,100068.97
2023-05-22T10:58:13.044Z,100067.63
2023-05-22T11:01:16.364Z,100054.31
2023-05-22T11:04:19.018Z,100050.34
2023-05-22T11:07:25.567Z,100056.06
2023-05-22T11:10:27.802Z,100059.59
2023-05-22T11:13:29.612Z,100060.56
2023-05-22T11:16:34.478Z,100039.84
2023-05-22T11:19:36.573Z,100042.31
2023-05-22T11:22:41.110Z,100046.97
2023-05-22T11:25:42.763Z,100047.34
2023-05-22T11:28:49.182Z,100044.03
2023-05-22T11:31:50.825Z,100039.44
2023-05-22T11:34:53.204Z,100036.75
2023-05-22T11:37:56.117Z,100032.22
2023-05-22T11:40:58.012Z,100028.63
2023-05-22T11:44:00.422Z,100023.75
2023-05-22T11:47:01.894Z,100027.00
2023-05-22T11:50:06.547Z,100020.41
2023-05-22T11:53:08.123Z,100019.94
2023-05-22T11:56:09.602Z,100022.09
2023-05-22T11:59:11.021Z,100010.28
2023-05-22T12:02:13.588Z,100012.97
2023-05-22T12:05:16.431Z,100013.47
2023-05-22T12:08:18.191Z,100006.38
2023-05-22T12:11:19.667Z,99990.63
2023-05-22T12:14:26.222Z,99994.00
2023-05-22T12:17:28.601Z,99989.06
2023-05-22T12:20:31.060Z,99992.59
2023-05-22T12:23:32.512Z,99986.19
2023-05-22T12:26:34.574Z,99991.91
2023-05-22T12:29:36.588Z,99982.41
2023-05-22T12:32:39.819Z,99988.75
2023-05-22T12:35:41.764Z,99986.63
2023-05-22T12:38:43.472Z,99977.44
2023-05-22T12:41:46.023Z,99986.31
2023-05-22T12:44:47.673Z,99989.66
2023-05-22T12:47:49.137Z,99988.44
2023-05-22T12:50:50.663Z,99990.28
2023-05-22T12:53:52.130Z,99981.59
2023-05-22T12:56:53.539Z,99980.72
2023-05-22T12:59:55.058Z,99982.06
2023-05-22T13:02:56.631Z,99980.25
2023-05-22T13:05:58.031Z,99983.63
2023-05-22T13:09:02.365Z,99974.88
2023-05-22T13:12:04.051Z,99968.66
2023-05-22T13:15:06.617Z,99972.69
2023-05-22T13:18:08.068Z,99966.19
2023-05-22T13:21:09.612Z,99960.09
2023-05-22T13:24:11.282Z,99958.16
2023-05-22T13:27:13.058Z,99955.31
2023-05-22T13:30:14.545Z,99958.41
2023-05-22T13:33:16.290Z,99963.00
2023-05-22T13:36:18.108Z,99951.25
2023-05-22T13:39:19.595Z,99952.56
2023-05-22T13:42:21.165Z,99952.13
2023-05-22T13:45:22.818Z,99955.81
2023-05-22T13:48:24.889Z,99940.69
2023-05-22T13:51:26.374Z,99936.59
2023-05-22T13:54:28.099Z,99933.16
2023-05-22T13:57:29.538Z,99930.28
2023-05-22T14:00:31.046Z,99930.53
2023-05-22T14:03:32.619Z,99925.47
2023-05-22T14:06:34.183Z,99920.00
2023-05-22T14:09:35.616Z,99927.91
2023-05-22T14:12:37.330Z,99923.22
2023-05-22T14:15:38.985Z,99930.81
2023-05-22T14:18:40.471Z,99924.72
2023-05-22T14:21:41.896Z,99933.63
2023-05-22T14:24:43.315Z,99939.31
2023-05-22T14:27:44.838Z,99937.09
2023-05-22T14:30:46.476Z,99927.69
2023-05-22T14:33:47.927Z,99937.53
2023-05-22T14:36:49.435Z,99934.47
2023-05-22T14:39:50.898Z,99941.28
2023-05-22T14:42:54.198Z,99934.59
2023-05-22T14:45:57.835Z,99929.97
2023-05-22T14:48:59.504Z,99930.22
2023-05-22T14:52:01.512Z,99931.28
2023-05-22T14:55:03.746Z,99924.25
2023-05-22T14:58:05.192Z,99928.34
2023-05-22T15:01:06.668Z,99930.06
2023-05-22T15:04:08.841Z,99943.28
2023-05-22T15:07:10.477Z,99940.03
2023-05-22T15:10:12.438Z,99936.47
2023-05-22T15:13:14.511Z,99935.97
2023-05-22T15:16:16.387Z,99946.88
2023-05-22T15:19:18.064Z,99938.59
2023-05-22T15:22:20.232Z,99939.41
2023-05-22T15:25:21.812Z,99950.13
2023-05-22T15:28:23.259Z,99946.97
2023-05-22T15:31:24.716Z,99941.41
2023-05-22T15:34:26.132Z,99950.72
2023-05-22T15:37:32.190Z,99967.13
2023-05-22T15:40:34.103Z,99958.66
2023-05-22T15:43:35.671Z,99957.81
2023-05-22T15:46:37.297Z,99954.06
2023-05-22T15:49:38.735Z,99954.41
2023-05-22T15:52:40.480Z,99954.72
2023-05-22T15:55:42.177Z,99955.31
2023-05-22T15:58:43.852Z,99953.97
2023-05-22T16:01:45.680Z,99952.03
2023-05-22T16:04:48.589Z,99954.94
2023-05-22T16:07:50.056Z,99963.91
2023-05-22T16:10:51.568Z,99966.75
2023-05-22T16:13:53.106Z,99966.38
2023-05-22T16:16:55.121Z,99973.44
2023-05-22T16:19:56.548Z,99966.56
2023-05-22T16:22:57.969Z,99964.91
2023-05-22T16:25:59.523Z,99968.56
2023-05-22T16:29:01.091Z,99977.19
2023-05-22T16:32:03.707Z,99987.22
2023-05-22T16:35:06.199Z,99998.81
2023-05-22T16:38:11.605Z,100009.66
2023-05-22T16:41:13.105Z,100023.34
2023-05-22T16:44:14.532Z,100023.84
2023-05-22T16:47:15.957Z,100034.69
2023-05-22T16:50:17.574Z,100030.38
2023-05-22T16:53:19.618Z,100032.88
2023-05-22T16:56:21.063Z,100042.44
2023-05-22T16:59:22.541Z,100041.22
2023-05-22T17:02:24.344Z,100047.38
2023-05-22T17:05:25.943Z,100053.50
2023-05-22T17:08:28.340Z,100066.88
2023-05-22T17:11:30.023Z,100070.44
2023-05-22T17:14:33.398Z,100071.19
2023-05-22T17:17:34.883Z,100065.63
2023-05-22T17:20:36.343Z,100062.34
2023-05-22T17:23:40.174Z,100053.41
2023-05-22T17:26:42.723Z,100058.34
2023-05-22T17:29:44.187Z,100071.00
2023-05-22T17:32:46.118Z,100077.53
2023-05-22T17:35:47.788Z,100068.44
2023-05-22T17:38:49.277Z,100078.22
2023-05-22T17:41:51.167Z,100085.47
2023-05-22T17:44:52.608Z,100080.66
2023-05-22T17:47:54.168Z,100092.56
2023-05-22T17:50:55.855Z,100084.66
2023-05-22T17:53:58.897Z,100082.53
2023-05-22T17:57:00.667Z,100085.94
2023-05-22T18:00:05.222Z,100083.09
2023-05-22T18:03:13.371Z,100088.34
2023-05-22T18:06:14.934Z,100100.81
2023-05-22T18:09:16.378Z,100092.31
2023-05-22T18:12:31.219Z,100082.56
2023-05-22T18:15:33.349Z,100074.50
2023-05-22T18:18:34.847Z,100073.06
2023-05-22T18:21:36.305Z,100072.19
2023-05-22T18:24:38.222Z,100071.06
2023-05-22T18:27:40.019Z,100078.41
2023-05-22T18:30:44.513Z,100078.97
2023-05-22T18:33:46.547Z,100069.50
2023-05-22T18:36:50.800Z,100064.97
2023-05-22T18:39:53.047Z,100069.22
2023-05-22T18:42:54.795Z,100060.88
2023-05-22T18:45:57.769Z,100068.47
2023-05-22T18:48:59.249Z,100060.84
2023-05-22T18:52:01.609Z,100064.81
2023-05-22T18:55:03.163Z,100071.47
2023-05-22T18:58:04.593Z,100076.41
2023-05-22T19:01:06.128Z,100073.31
2023-05-22T19:04:08.310Z,100080.09
2023-05-22T19:07:09.819Z,100074.66
2023-05-22T19:10:11.412Z,100061.94
2023-05-22T19:13:12.959Z,100062.47
2023-05-22T19:16:14.529Z,100070.56
2023-05-22T19:19:16.166Z,100072.28
2023-05-22T19:22:18.237Z,100076.50
2023-05-22T19:25:21.023Z,100081.28
2023-05-22T19:28:23.077Z,100075.59
2023-05-22T19:31:28.241Z,100078.44
2023-05-22T19:34:29.654Z,100085.25
2023-05-22T19:37:31.106Z,100075.06
2023-05-22T19:40:33.171Z,100082.88
2023-05-22T19:43:34.804Z,100086.13
2023-05-22T19:46:36.591Z,100088.13
2023-05-22T19:49:38.106Z,100088.41
2023-05-22T19:52:39.821Z,100087.09
2023-05-22T19:55:41.463Z,100088.69
2023-05-22T19:58:43.488Z,100093.09
2023-05-22T20:01:44.946Z,100107.88
2023-05-22T20:04:48.351Z,100107.41
2023-05-22T20:07:49.944Z,100121.50
2023-05-22T20:10:51.551Z,100132.22
2023-05-22T20:13:54.362Z,100140.34
2023-05-22T20:16:55.841Z,100147.63
2023-05-22T20:20:01.309Z,100145.06
2023-05-22T20:23:02.742Z,100156.13
2023-05-22T20:26:04.830Z,100147.75
2023-05-22T20:29:06.312Z,100152.38
2023-05-22T20:32:08.644Z,100157.47
2023-05-22T20:35:10.856Z,100175.78
2023-05-22T20:38:14.151Z,100175.97
2023-05-22T20:41:15.860Z,100184.28
2023-05-22T20:44:23.418Z,100191.28
2023-05-22T20:47:24.833Z,100185.81
2023-05-22T20:50:26.285Z,100199.84
2023-05-22T20:53:27.744Z,100208.91
2023-05-22T20:56:29.928Z,100211.22
2023-05-22T20:59:32.025Z,100214.78
2023-05-22T21:02:33.479Z,100216.88
2023-05-22T21:05:34.924Z,100210.91
2023-05-22T21:08:36.382Z,100215.88
2023-05-22T21:11:37.856Z,100216.66
2023-05-22T21:14:40.128Z,100220.81
2023-05-22T21:17:41.719Z,100218.47
2023-05-22T21:20:43.426Z,100222.09
2023-05-22T21:23:44.929Z,100217.38
2023-05-22T21:26:46.557Z,100217.16
2023-05-22T21:29:47.960Z,100214.19
2023-05-22T21:32:49.425Z,100211.50
2023-05-22T21:35:50.896Z,100220.88
2023-05-22T21:38:53.076Z,100225.16
2023-05-22T21:41:54.492Z,100226.13
2023-05-22T21:44:55.920Z,100224.28
2023-05-22T21:47:57.480Z,100221.72
2023-05-22T21:50:59.011Z,100229.06
2023-05-22T21:54:00.704Z,100230.63
2023-05-22T21:57:02.135Z,100227.69
2023-05-22T22:00:03.902Z,100232.41
2023-05-22T22:03:06.713Z,100232.91
2023-05-22T22:06:08.260Z,100236.88
2023-05-22T22:09:09.739Z,100242.50
2023-05-22T22:12:11.619Z,100247.47
2023-05-22T22:15:13.113Z,100235.88
2023-05-22T22:18:15.775Z,100238.53
2023-05-22T22:21:26.423Z,100237.22
2023-05-22T22:24:28.042Z,100244.13
2023-05-22T22:27:29.510Z,100238.78
2023-05-22T22:30:31.010Z,100251.56
2023-05-22T22:33:32.846Z,100247.88
2023-05-22T22:36:36.403Z,100257.06
2023-05-22T22:39:38.257Z,100253.19
2023-05-22T22:42:39.702Z,100268.72
2023-05-22T22:45:41.619Z,100266.22
2023-05-22T22:48:43.625Z,100253.53
2023-05-22T22:51:45.070Z,100262.81
2023-05-22T22:54:46.530Z,100266.91
2023-05-22T22:57:49.827Z,100272.47
2023-05-22T23:00:51.628Z,100266.09
2023-05-22T23:03:53.145Z,100275.72
2023-05-22T23:06:54.712Z,100273.16
2023-05-22T23:09:56.135Z,100277.09
2023-05-22T23:12:58.113Z,100274.41
2023-05-22T23:15:59.762Z,100275.28
2023-05-22T23:19:05.234Z,100284.16
2023-05-22T23:22:06.805Z,100280.72
2023-05-22T23:25:08.859Z,100281.28
2023-05-22T23:28:10.280Z,100289.88
2023-05-22T23:31:14.060Z,100278.41
2023-05-22T23:34:15.874Z,100283.88
2023-05-22T23:37:17.431Z,100287.72
2023-05-22T23:40:18.874Z,100292.81
2023-05-22T23:43:20.946Z,100291.34
2023-05-22T23:46:24.144Z,100294.78
2023-05-22T23:49:26.318Z,100289.00
2023-05-22T23:52:27.832Z,100285.69
2023-05-22T23:55:29.314Z,100284.09
2023-05-22T23:58:31.949Z,100289.47
